Time;durP1;ratioP1;P1;durP2;ratioP2;P2;SDS_P1;SDS_P2;PMS_P1;PMS_P2;Temp;Humidity;BMP_temperature;BMP_pressure;BME280_temperature;BME280_humidity;BME280_pressure;Samples;Min_cycle;Max_cycle;Signal;HPM_P1;HPM_P2
2023/08/24 00:00:39;;;;;;;3.30;3.00;;;17.10;99.90;;;;;;4864467;29;20585;-85
2023/08/24 00:03:05;;;;;;;5.30;3.30;;;17.00;99.90;;;;;;4864244;29;20220;-85
2023/08/24 00:05:36;;;;;;;6.37;2.80;;;17.00;99.90;;;;;;4864161;29;20462;-85
2023/08/24 00:08:03;;;;;;;4.57;3.20;;;17.00;99.90;;;;;;4863816;29;20232;-84
2023/08/24 00:10:29;;;;;;;5.80;2.77;;;17.00;99.90;;;;;;4864006;29;20387;-84
2023/08/24 00:12:54;;;;;;;4.43;3.23;;;17.00;99.90;;;;;;4863386;29;20447;-85
2023/08/24 00:15:20;;;;;;;7.93;3.20;;;16.90;99.90;;;;;;4863024;29;20188;-85
2023/08/24 00:17:45;;;;;;;6.40;3.03;;;16.90;99.90;;;;;;4862831;29;20188;-84
2023/08/24 00:20:11;;;;;;;4.10;3.20;;;16.90;99.90;;;;;;4863788;29;20271;-85
2023/08/24 00:22:39;;;;;;;4.50;3.00;;;16.90;99.90;;;;;;4863932;29;20219;-84
2023/08/24 00:25:05;;;;;;;8.83;3.27;;;16.90;99.90;;;;;;4862710;29;20630;-85
2023/08/24 00:27:31;;;;;;;4.10;3.23;;;16.80;99.90;;;;;;4863748;29;20417;-85
2023/08/24 00:29:57;;;;;;;6.43;3.50;;;16.90;99.90;;;;;;4863648;29;20445;-85
2023/08/24 00:32:23;;;;;;;5.43;3.43;;;16.80;99.90;;;;;;4863873;29;20275;-84
2023/08/24 00:34:49;;;;;;;5.53;3.43;;;16.80;99.90;;;;;;4863789;29;20180;-84
2023/08/24 00:37:14;;;;;;;9.90;3.50;;;16.80;99.90;;;;;;4863314;29;20941;-85
2023/08/24 00:39:41;;;;;;;6.60;3.70;;;16.80;99.90;;;;;;4863266;29;20208;-84
2023/08/24 00:42:07;;;;;;;3.27;2.80;;;16.70;99.90;;;;;;4846806;29;20223;-84
2023/08/24 00:44:33;;;;;;;6.53;3.37;;;16.70;99.90;;;;;;4863479;29;20392;-84
2023/08/24 00:46:59;;;;;;;5.60;2.70;;;16.70;99.90;;;;;;4863025;29;20504;-84
2023/08/24 00:49:26;;;;;;;4.30;3.70;;;16.70;99.90;;;;;;4863452;29;20490;-84
2023/08/24 00:51:52;;;;;;;5.17;3.80;;;16.70;99.90;;;;;;4863509;29;20427;-84
2023/08/24 00:54:18;;;;;;;6.00;3.63;;;16.70;99.90;;;;;;4861879;29;20431;-84
2023/08/24 00:56:44;;;;;;;5.17;3.23;;;16.70;99.90;;;;;;4863219;29;20173;-84
2023/08/24 00:59:10;;;;;;;5.90;3.57;;;16.60;99.90;;;;;;4861642;29;20419;-84
2023/08/24 01:01:35;;;;;;;6.43;3.80;;;16.60;99.90;;;;;;4861887;29;20417;-84
2023/08/24 01:04:02;;;;;;;5.07;3.37;;;16.60;99.90;;;;;;4862894;29;20223;-84
2023/08/24 01:06:28;;;;;;;6.13;3.90;;;16.60;99.90;;;;;;4863451;29;20447;-84
2023/08/24 01:08:54;;;;;;;7.20;3.13;;;16.60;99.90;;;;;;4862858;29;20873;-84
2023/08/24 01:11:47;;;;;;;6.90;3.97;;;16.60;99.90;;;;;;4863244;29;20307;-84
2023/08/24 01:14:57;;;;;;;4.40;3.00;;;16.80;99.90;;;;;;4863112;29;20372;-84
2023/08/24 01:17:28;;;;;;;6.33;3.10;;;16.80;99.90;;;;;;4828530;29;20411;-84
2023/08/24 01:19:55;;;;;;;3.97;3.43;;;16.80;99.90;;;;;;4863167;29;20440;-84
2023/08/24 01:22:32;;;;;;;3.80;3.30;;;16.60;99.90;;;;;;4862769;29;20450;-84
2023/08/24 01:24:58;;;;;;;4.47;4.00;;;16.70;99.90;;;;;;4862623;29;20371;-85
2023/08/24 01:27:24;;;;;;;5.40;3.90;;;16.50;99.90;;;;;;4862672;29;20898;-84
2023/08/24 01:29:52;;;;;;;6.47;3.87;;;16.60;99.90;;;;;;4862780;29;20211;-84
2023/08/24 01:32:18;;;;;;;9.53;3.90;;;16.50;99.90;;;;;;4862566;29;20411;-84
2023/08/24 01:34:43;;;;;;;6.27;3.60;;;16.40;99.90;;;;;;4861385;29;20408;-84
2023/08/24 01:37:09;;;;;;;5.87;3.87;;;16.40;99.90;;;;;;4862292;29;20176;-85
2023/08/24 01:39:50;;;;;;;8.77;3.97;;;16.40;99.90;;;;;;4862679;29;20188;-84
2023/08/24 01:42:20;;;;;;;4.50;3.03;;;16.40;99.90;;;;;;4861858;29;20215;-84
2023/08/24 01:44:50;;;;;;;5.00;3.27;;;16.40;99.90;;;;;;4862579;29;20424;-84
2023/08/24 01:47:18;;;;;;;6.30;3.70;;;16.40;99.90;;;;;;4861844;29;20466;-84
2023/08/24 01:49:44;;;;;;;5.60;3.43;;;16.40;99.90;;;;;;4862786;29;20519;-84
2023/08/24 01:52:11;;;;;;;6.10;4.10;;;16.30;99.90;;;;;;4861519;29;20391;-85
2023/08/24 01:54:37;;;;;;;5.43;3.90;;;16.40;99.90;;;;;;4862275;29;20417;-84
2023/08/24 01:57:06;;;;;;;8.17;3.90;;;16.40;99.90;;;;;;4862149;29;20402;-85
2023/08/24 01:59:31;;;;;;;5.60;3.70;;;16.40;99.90;;;;;;4862723;29;20188;-84
2023/08/24 02:01:57;;;;;;;5.03;3.87;;;16.40;99.90;;;;;;4862311;29;20428;-84
2023/08/24 02:04:23;;;;;;;6.30;4.00;;;16.40;99.90;;;;;;4861985;29;20181;-84
2023/08/24 02:06:48;;;;;;;5.17;3.87;;;16.40;99.90;;;;;;4860943;29;20220;-85
2023/08/24 02:09:14;;;;;;;3.60;3.13;;;16.40;99.90;;;;;;4862310;29;20565;-85
2023/08/24 02:11:39;;;;;;;4.53;4.00;;;16.50;99.90;;;;;;4862305;29;20180;-85
2023/08/24 02:14:05;;;;;;;5.83;4.17;;;16.50;99.90;;;;;;4862076;29;20266;-85
2023/08/24 02:16:31;;;;;;;15.73;3.60;;;16.50;99.90;;;;;;4860613;29;20188;-85
2023/08/24 02:18:56;;;;;;;7.80;4.70;;;16.50;99.90;;;;;;4862303;29;20725;-84
2023/08/24 02:21:22;;;;;;;3.97;3.47;;;16.60;99.90;;;;;;4860670;29;20244;-84
2023/08/24 02:23:47;;;;;;;5.07;3.63;;;16.60;99.90;;;;;;4862231;29;20247;-84
2023/08/24 02:26:13;;;;;;;6.53;3.90;;;16.60;99.90;;;;;;4845143;29;20207;-84
2023/08/24 02:28:38;;;;;;;9.10;4.10;;;16.70;99.90;;;;;;4862310;29;20180;-84
2023/08/24 02:31:04;;;;;;;7.03;4.10;;;16.70;99.90;;;;;;4861640;29;20199;-85
2023/08/24 02:33:31;;;;;;;6.27;4.20;;;16.80;99.90;;;;;;4862067;29;20191;-85
2023/08/24 02:35:57;;;;;;;8.23;4.23;;;17.00;99.90;;;;;;4861223;29;20929;-84
2023/08/24 02:38:23;;;;;;;8.93;4.97;;;16.90;99.90;;;;;;4861697;29;20409;-84
2023/08/24 02:40:49;;;;;;;11.17;3.70;;;16.80;99.90;;;;;;4861872;29;20458;-84
2023/08/24 02:43:14;;;;;;;6.53;3.80;;;16.80;99.90;;;;;;4845038;29;20591;-84
2023/08/24 02:45:40;;;;;;;4.40;3.93;;;16.80;99.90;;;;;;4861685;29;20316;-84
2023/08/24 02:48:06;;;;;;;5.23;4.10;;;16.90;99.90;;;;;;4861459;29;20188;-85
2023/08/24 02:50:31;;;;;;;8.43;4.77;;;16.90;99.90;;;;;;4861899;29;20184;-84
2023/08/24 02:53:01;;;;;;;5.40;4.07;;;16.90;99.90;;;;;;4861413;29;20194;-84
2023/08/24 02:55:27;;;;;;;7.53;3.53;;;17.00;99.90;;;;;;4861640;29;20283;-84
2023/08/24 02:57:52;;;;;;;6.53;3.67;;;17.10;99.90;;;;;;4861498;29;20409;-84
2023/08/24 03:00:18;;;;;;;7.00;4.20;;;17.10;99.90;;;;;;4861534;29;20267;-84
2023/08/24 03:02:43;;;;;;;4.33;3.70;;;17.10;99.90;;;;;;4862048;29;20216;-84
2023/08/24 03:05:09;;;;;;;5.40;3.93;;;17.20;99.90;;;;;;4861601;29;20653;-84
2023/08/24 03:07:34;;;;;;;4.60;3.43;;;17.20;99.90;;;;;;4861821;29;20272;-84
2023/08/24 03:10:00;;;;;;;5.90;3.67;;;17.20;99.90;;;;;;4861901;29;20213;-85
2023/08/24 03:12:26;;;;;;;5.73;3.67;;;17.20;99.90;;;;;;4861626;29;20629;-84
2023/08/24 03:14:53;;;;;;;11.67;3.40;;;17.20;99.90;;;;;;4861544;29;20622;-84
2023/08/24 03:17:19;;;;;;;5.47;4.40;;;17.30;99.90;;;;;;4861464;29;20533;-84
2023/08/24 03:19:44;;;;;;;7.17;4.00;;;17.30;99.90;;;;;;4861431;29;20779;-84
2023/08/24 03:22:10;;;;;;;6.53;3.87;;;17.30;99.90;;;;;;4861025;29;20480;-84
2023/08/24 03:24:36;;;;;;;6.70;3.70;;;17.30;99.90;;;;;;4861590;29;20236;-84
2023/08/24 03:27:02;;;;;;;8.33;4.23;;;17.30;99.90;;;;;;4860416;29;20177;-84
2023/08/24 03:29:27;;;;;;;6.30;4.23;;;17.30;99.90;;;;;;4861358;29;20424;-85
2023/08/24 03:31:53;;;;;;;7.20;4.00;;;17.30;99.90;;;;;;4861536;29;20196;-84
2023/08/24 03:34:20;;;;;;;4.37;3.97;;;17.30;99.90;;;;;;4860033;29;20463;-84
2023/08/24 03:36:47;;;;;;;13.53;3.80;;;17.30;99.90;;;;;;4861706;29;20267;-84
2023/08/24 03:39:13;;;;;;;7.03;3.60;;;17.30;99.90;;;;;;4860234;29;20436;-84
2023/08/24 03:41:40;;;;;;;4.30;3.50;;;17.20;99.90;;;;;;4861350;29;20970;-84
2023/08/24 03:44:05;;;;;;;5.53;3.67;;;17.20;99.90;;;;;;4861231;29;20472;-86
2023/08/24 03:46:31;;;;;;;6.07;4.07;;;17.20;99.90;;;;;;4859926;29;20244;-84
2023/08/24 03:48:56;;;;;;;7.37;4.60;;;17.20;99.90;;;;;;4863596;29;20183;-84
2023/08/24 03:51:22;;;;;;;4.77;3.70;;;17.20;99.90;;;;;;4864756;29;20188;-84
2023/08/24 03:53:47;;;;;;;5.57;4.33;;;17.30;99.90;;;;;;4864818;29;20539;-84
2023/08/24 03:56:13;;;;;;;5.50;3.63;;;17.30;99.90;;;;;;4863282;29;20188;-85
2023/08/24 03:58:38;;;;;;;8.23;4.20;;;17.30;99.90;;;;;;4865023;29;20507;-84
2023/08/24 04:01:06;;;;;;;6.03;3.93;;;17.40;99.90;;;;;;4864451;29;20192;-84
2023/08/24 04:03:32;;;;;;;8.50;4.47;;;17.40;99.90;;;;;;4864487;29;20537;-84
2023/08/24 04:05:57;;;;;;;7.27;4.20;;;17.50;99.90;;;;;;4863238;29;20399;-84
2023/08/24 04:08:23;;;;;;;6.73;4.30;;;17.40;99.90;;;;;;4864198;29;20589;-84
2023/08/24 04:10:49;;;;;;;8.67;4.00;;;17.40;99.90;;;;;;4864411;29;20180;-84
2023/08/24 04:13:14;;;;;;;7.37;4.20;;;17.40;99.90;;;;;;4862992;29;20180;-85
2023/08/24 04:15:40;;;;;;;7.23;4.10;;;17.60;99.90;;;;;;4864255;29;20176;-84
2023/08/24 04:18:06;;;;;;;5.70;4.20;;;17.40;99.90;;;;;;4864070;29;20188;-84
2023/08/24 04:20:31;;;;;;;6.97;4.67;;;17.50;99.90;;;;;;4863932;29;20580;-84
2023/08/24 04:22:57;;;;;;;8.03;3.63;;;17.50;99.90;;;;;;4863932;29;20222;-84
2023/08/24 04:25:22;;;;;;;5.90;4.00;;;17.60;99.90;;;;;;4863583;29;20188;-84
2023/08/24 04:27:48;;;;;;;6.07;4.47;;;17.60;99.90;;;;;;4862527;29;20237;-84
2023/08/24 04:30:13;;;;;;;6.57;4.60;;;17.60;99.90;;;;;;4863563;29;20187;-85
2023/08/24 04:32:39;;;;;;;7.63;5.23;;;17.60;99.90;;;;;;4864022;29;20187;-83
2023/08/24 04:35:05;;;;;;;9.70;5.17;;;17.70;99.90;;;;;;4864406;29;20180;-82
2023/08/24 04:37:31;;;;;;;9.77;5.63;;;17.70;99.90;;;;;;4863995;29;20626;-83
2023/08/24 04:39:57;;;;;;;8.70;6.70;;;17.70;99.90;;;;;;4864197;29;20448;-83
2023/08/24 04:42:22;;;;;;;9.33;6.97;;;17.70;99.90;;;;;;4863756;29;20352;-84
2023/08/24 04:44:48;;;;;;;10.13;7.47;;;17.70;99.90;;;;;;4864011;29;20189;-84
2023/08/24 04:47:13;;;;;;;11.67;7.07;;;17.60;99.90;;;;;;4863782;29;20216;-85
2023/08/24 04:49:39;;;;;;;9.60;7.70;;;17.50;99.90;;;;;;4863510;29;20187;-85
2023/08/24 04:52:05;;;;;;;15.57;8.53;;;17.50;99.90;;;;;;4863568;29;20280;-85
2023/08/24 04:54:30;;;;;;;9.13;7.70;;;17.40;99.90;;;;;;4863520;29;20626;-85
2023/08/24 04:56:56;;;;;;;13.10;7.23;;;17.40;99.90;;;;;;4863681;29;20176;-85
2023/08/24 04:59:21;;;;;;;11.33;7.47;;;17.40;99.90;;;;;;4863122;29;20571;-85
2023/08/24 05:01:47;;;;;;;10.60;6.80;;;17.40;99.90;;;;;;4863366;29;20260;-85
2023/08/24 05:04:12;;;;;;;10.03;6.40;;;17.40;99.90;;;;;;4863010;29;20231;-85
2023/08/24 05:06:39;;;;;;;8.07;7.23;;;17.40;99.90;;;;;;4863476;29;20180;-85
2023/08/24 05:09:05;;;;;;;10.03;6.93;;;17.40;99.90;;;;;;4863027;29;20228;-85
2023/08/24 05:11:30;;;;;;;9.13;6.97;;;17.40;99.90;;;;;;4862973;29;20452;-84
2023/08/24 05:13:56;;;;;;;7.40;6.43;;;17.40;99.90;;;;;;4863231;29;20196;-85
2023/08/24 05:16:22;;;;;;;9.13;7.37;;;17.40;99.90;;;;;;4863040;29;20259;-85
2023/08/24 05:18:47;;;;;;;15.40;7.77;;;17.50;99.90;;;;;;4863297;29;20195;-85
2023/08/24 05:21:13;;;;;;;11.43;7.23;;;17.50;99.90;;;;;;4862997;29;20183;-85
2023/08/24 05:23:39;;;;;;;9.87;7.27;;;17.50;99.90;;;;;;4862904;29;20295;-85
2023/08/24 05:26:04;;;;;;;9.77;7.77;;;17.60;99.90;;;;;;4863053;29;20268;-85
2023/08/24 05:28:31;;;;;;;11.90;8.23;;;17.60;99.90;;;;;;4862611;29;20191;-85
2023/08/24 05:30:57;;;;;;;10.30;7.43;;;17.60;99.90;;;;;;4862971;29;20180;-85
2023/08/24 05:33:24;;;;;;;9.17;6.53;;;17.60;99.90;;;;;;4862573;29;20524;-84
2023/08/24 05:35:50;;;;;;;12.20;8.63;;;17.60;99.90;;;;;;4862759;29;20493;-85
2023/08/24 05:38:16;;;;;;;12.87;7.90;;;17.60;99.90;;;;;;4862948;29;20465;-85
2023/08/24 05:40:51;;;;;;;11.73;8.73;;;17.70;99.90;;;;;;4862463;29;20441;-85
2023/08/24 05:43:16;;;;;;;11.83;8.50;;;17.70;99.90;;;;;;4862671;29;20469;-85
2023/08/24 05:45:44;;;;;;;10.23;8.17;;;17.70;99.90;;;;;;4862829;29;20429;-84
2023/08/24 05:48:10;;;;;;;9.93;7.60;;;17.80;99.90;;;;;;4862273;29;20283;-84
2023/08/24 05:50:37;;;;;;;12.87;7.57;;;17.80;99.90;;;;;;4862169;29;20548;-84
2023/08/24 05:53:03;;;;;;;13.23;8.60;;;17.80;99.90;;;;;;4862420;29;20211;-84
2023/08/24 05:55:29;;;;;;;12.00;9.20;;;17.80;99.90;;;;;;4862506;29;20424;-84
2023/08/24 05:57:54;;;;;;;12.63;9.30;;;17.90;99.90;;;;;;4862170;29;20417;-84
2023/08/24 06:00:22;;;;;;;17.63;9.70;;;18.00;99.90;;;;;;4862286;29;20526;-84
2023/08/24 06:02:47;;;;;;;16.73;9.17;;;18.10;99.90;;;;;;4862339;29;20228;-84
2023/08/24 06:05:13;;;;;;;10.20;8.50;;;18.20;99.90;;;;;;4862679;29;20409;-84
2023/08/24 06:07:39;;;;;;;11.40;8.97;;;18.20;99.90;;;;;;4862377;29;20331;-84
2023/08/24 06:10:07;;;;;;;9.37;8.33;;;18.20;99.90;;;;;;4862253;29;20172;-84
2023/08/24 06:12:33;;;;;;;11.87;8.43;;;18.20;99.90;;;;;;4861473;29;20195;-84
2023/08/24 06:15:02;;;;;;;10.80;8.00;;;18.20;99.90;;;;;;4862087;29;20413;-84
2023/08/24 06:17:27;;;;;;;10.53;7.60;;;18.30;99.90;;;;;;4862048;29;20407;-85
2023/08/24 06:19:53;;;;;;;9.80;7.53;;;18.30;99.90;;;;;;4861643;29;20884;-84
2023/08/24 06:22:18;;;;;;;10.80;7.83;;;18.30;99.90;;;;;;4862027;29;20668;-84
2023/08/24 06:24:44;;;;;;;9.13;7.70;;;18.30;99.90;;;;;;4862267;29;20176;-84
2023/08/24 06:27:09;;;;;;;10.90;7.83;;;18.30;99.90;;;;;;4862106;29;20645;-84
2023/08/24 06:29:35;;;;;;;10.40;8.10;;;18.30;99.90;;;;;;4861972;29;20513;-84
2023/08/24 06:32:00;;;;;;;12.33;7.60;;;18.40;99.90;;;;;;4862062;29;20212;-84
2023/08/24 06:34:26;;;;;;;9.23;7.57;;;18.50;99.90;;;;;;4861778;29;20185;-84
2023/08/24 06:36:53;;;;;;;8.97;7.40;;;18.70;99.90;;;;;;4862102;29;20267;-83
2023/08/24 06:39:19;;;;;;;12.17;7.50;;;18.70;99.90;;;;;;4861905;29;20172;-84
2023/08/24 06:41:45;;;;;;;9.93;7.23;;;18.80;99.90;;;;;;4860961;29;20425;-84
2023/08/24 06:44:10;;;;;;;9.47;6.80;;;19.00;99.90;;;;;;4862023;29;20219;-84
2023/08/24 06:46:36;;;;;;;12.80;6.40;;;19.10;99.90;;;;;;4861524;29;20200;-83
2023/08/24 06:49:01;;;;;;;7.30;5.63;;;19.20;99.90;;;;;;4862166;29;20686;-83
2023/08/24 06:51:28;;;;;;;10.80;6.00;;;19.30;99.90;;;;;;4861428;29;20269;-84
2023/08/24 06:53:54;;;;;;;9.13;5.83;;;19.40;99.90;;;;;;4861505;29;20536;-84
2023/08/24 06:56:20;;;;;;;7.70;6.07;;;19.60;99.90;;;;;;4861653;29;20473;-83
2023/08/24 06:58:47;;;;;;;8.53;5.87;;;19.70;99.90;;;;;;4861702;29;20180;-85
2023/08/24 07:01:13;;;;;;;7.37;4.80;;;19.70;99.90;;;;;;4862233;29;20476;-83
2023/08/24 07:03:39;;;;;;;7.70;4.70;;;19.80;99.90;;;;;;4861591;29;20536;-83
2023/08/24 07:06:08;;;;;;;6.40;4.43;;;19.90;99.90;;;;;;4861868;29;20178;-82
2023/08/24 07:08:34;;;;;;;6.77;4.40;;;20.10;99.90;;;;;;4861114;29;20487;-84
2023/08/24 07:11:01;;;;;;;9.60;4.53;;;20.20;99.90;;;;;;4861592;29;20402;-84
2023/08/24 07:13:27;;;;;;;8.80;5.17;;;20.30;99.90;;;;;;4861498;29;20899;-84
2023/08/24 07:15:53;;;;;;;10.03;4.87;;;20.30;99.90;;;;;;4861369;29;20420;-84
2023/08/24 07:18:18;;;;;;;6.13;4.80;;;20.40;99.90;;;;;;4863589;29;20433;-86
2023/08/24 07:20:44;;;;;;;7.27;4.57;;;20.50;99.90;;;;;;4861512;29;20259;-85
2023/08/24 07:23:10;;;;;;;9.57;4.30;;;20.60;99.90;;;;;;4863309;29;20245;-85
2023/08/24 07:25:35;;;;;;;5.50;3.90;;;20.70;99.90;;;;;;4864890;29;20187;-86
2023/08/24 07:28:03;;;;;;;6.90;3.93;;;20.80;99.90;;;;;;4864580;29;20209;-85
2023/08/24 07:30:29;;;;;;;6.47;3.70;;;20.90;99.90;;;;;;4863324;29;20456;-86
2023/08/24 07:32:54;;;;;;;4.40;4.00;;;21.10;99.90;;;;;;4864116;29;20754;-86
2023/08/24 07:35:21;;;;;;;5.50;4.20;;;21.20;99.90;;;;;;4864547;29;20470;-89
2023/08/24 07:37:47;;;;;;;4.57;3.50;;;21.40;99.90;;;;;;4863595;29;20282;-88
2023/08/24 07:40:14;;;;;;;6.73;3.60;;;21.50;99.90;;;;;;4863539;29;20998;-86
2023/08/24 07:42:53;;;;;;;6.70;3.83;;;21.70;99.90;;;;;;4864180;29;21060;-86
2023/08/24 07:45:18;;;;;;;6.37;3.80;;;21.80;99.90;;;;;;4869666;29;20760;-87
2023/08/24 07:47:44;;;;;;;4.80;3.60;;;21.90;99.90;;;;;;4864016;29;20494;-88
2023/08/24 07:50:11;;;;;;;4.93;3.50;;;22.00;99.90;;;;;;4863397;29;20188;-90
2023/08/24 07:52:40;;;;;;;5.83;3.67;;;22.10;99.90;;;;;;4863892;29;20696;-93
2023/08/24 07:55:09;;;;;;;7.83;3.60;;;22.30;99.90;;;;;;4864479;29;20956;-92
2023/08/24 07:57:36;;;;;;;9.67;3.53;;;22.40;99.90;;;;;;4864181;29;20725;-92
2023/08/24 08:00:04;;;;;;;6.50;3.83;;;22.60;99.90;;;;;;4848099;29;20404;-88
2023/08/24 08:02:32;;;;;;;7.30;4.87;;;22.70;99.90;;;;;;4864123;29;20472;-88
2023/08/24 08:04:58;;;;;;;5.50;3.73;;;22.80;99.90;;;;;;4868668;29;20429;-90
2023/08/24 08:07:25;;;;;;;6.50;4.20;;;22.90;99.90;;;;;;4862537;29;20511;-89
2023/08/24 08:09:51;;;;;;;6.60;4.10;;;23.00;99.90;;;;;;4862924;29;20412;-86
2023/08/24 08:12:18;;;;;;;6.60;4.60;;;23.20;99.90;;;;;;4863713;29;20413;-86
2023/08/24 08:14:43;;;;;;;6.17;4.40;;;23.20;99.90;;;;;;4863646;29;20245;-89
2023/08/24 08:17:09;;;;;;;4.37;3.70;;;23.30;99.90;;;;;;4864419;29;20929;-88
2023/08/24 08:19:38;;;;;;;6.57;4.10;;;23.40;99.90;;;;;;4868320;29;20184;-89
2023/08/24 08:22:04;;;;;;;5.60;4.23;;;23.70;99.90;;;;;;4869515;29;20184;-87
2023/08/24 08:24:29;;;;;;;4.47;3.27;;;23.80;99.90;;;;;;4864909;29;20421;-90
2023/08/24 08:26:55;;;;;;;7.93;3.87;;;24.00;99.90;;;;;;4864810;29;20505;-87
2023/08/24 08:29:21;;;;;;;6.23;2.90;;;24.30;99.90;;;;;;4870765;29;20180;-90
2023/08/24 08:31:46;;;;;;;6.20;4.10;;;24.70;99.90;;;;;;4864008;29;20212;-90
2023/08/24 08:34:12;;;;;;;3.87;2.80;;;24.80;99.90;;;;;;4863175;29;20560;-87
2023/08/24 08:36:38;;;;;;;5.37;3.20;;;25.00;99.90;;;;;;4863324;29;20176;-88
2023/08/24 08:39:04;;;;;;;4.53;3.37;;;25.30;99.90;;;;;;4863092;29;20188;-87
2023/08/24 08:41:41;;;;;;;7.77;3.30;;;25.60;99.90;;;;;;4862566;29;20176;-87
2023/08/24 08:44:08;;;;;;;3.33;3.03;;;25.80;99.90;;;;;;4863666;29;20544;-92
2023/08/24 08:46:34;;;;;;;3.63;3.20;;;26.20;99.90;;;;;;4861904;29;20782;-88
2023/08/24 08:49:03;;;;;;;4.90;3.33;;;26.50;99.90;;;;;;4862107;29;20433;-89
2023/08/24 08:51:29;;;;;;;6.30;4.23;;;26.70;99.90;;;;;;4861866;29;20227;-90
2023/08/24 08:53:55;;;;;;;3.70;3.30;;;26.70;99.90;;;;;;4862279;29;20421;-89
2023/08/24 08:56:22;;;;;;;6.73;3.20;;;26.70;99.90;;;;;;4862217;29;20436;-88
2023/08/24 08:58:49;;;;;;;4.67;3.23;;;27.20;99.90;;;;;;4862047;29;20188;-90
2023/08/24 09:01:17;;;;;;;3.27;2.97;;;27.50;99.90;;;;;;4863999;29;20405;-92
2023/08/24 09:03:43;;;;;;;4.50;3.13;;;27.30;99.90;;;;;;4861843;29;20556;-91
2023/08/24 09:06:09;;;;;;;4.13;2.53;;;27.60;99.90;;;;;;4863795;29;20413;-91
2023/08/24 09:08:35;;;;;;;4.33;2.73;;;28.00;99.90;;;;;;4861587;29;20476;-91
2023/08/24 09:11:02;;;;;;;5.27;2.97;;;28.30;99.90;;;;;;4862061;29;20424;-90
2023/08/24 09:13:28;;;;;;;3.07;2.77;;;28.40;99.90;;;;;;4862716;29;20192;-89
2023/08/24 09:16:02;;;;;;;6.93;3.27;;;28.30;99.90;;;;;;4862202;29;20417;-91
2023/08/24 09:18:38;;;;;;;3.70;2.83;;;28.40;99.90;;;;;;4847471;29;20207;-89
2023/08/24 09:21:11;;;;;;;3.27;2.97;;;28.60;99.90;;;;;;4863343;29;20415;-93
2023/08/24 09:23:42;;;;;;;4.73;3.33;;;28.80;99.90;;;;;;4862934;29;20450;-93
2023/08/24 09:26:08;;;;;;;7.97;3.30;;;28.60;99.90;;;;;;4863412;29;20405;-96
2023/08/24 09:28:36;;;;;;;3.50;3.13;;;28.90;99.90;;;;;;4863341;29;20520;-91
2023/08/24 09:31:02;;;;;;;6.23;3.60;;;29.30;99.90;;;;;;4863578;29;20187;-95
2023/08/24 09:33:28;;;;;;;7.33;3.30;;;29.10;99.90;;;;;;4862871;29;20425;-91
2023/08/24 09:36:01;;;;;;;3.47;2.90;;;29.30;99.90;;;;;;4862744;29;20405;-91
2023/08/24 09:38:27;;;;;;;4.00;2.63;;;29.50;99.90;;;;;;4861218;29;20409;-90
2023/08/24 09:40:54;;;;;;;4.27;2.40;;;29.80;99.90;;;;;;4862694;29;20457;-91
2023/08/24 09:43:21;;;;;;;4.30;3.20;;;29.70;99.90;;;;;;4862611;29;20460;-90
2023/08/24 09:45:51;;;;;;;3.77;2.77;;;30.00;99.90;;;;;;4861408;29;20470;-91
2023/08/24 09:48:17;;;;;;;3.87;2.73;;;29.90;99.90;;;;;;4862112;29;20779;-90
2023/08/24 09:50:46;;;;;;;4.47;3.23;;;29.80;99.90;;;;;;4868950;29;20401;-90
2023/08/24 09:53:24;;;;;;;4.30;2.77;;;29.80;99.90;;;;;;4869767;29;20508;-90
2023/08/24 09:56:01;;;;;;;6.20;3.13;;;29.90;99.90;;;;;;4866854;29;20463;-91
2023/08/24 09:58:27;;;;;;;7.13;3.10;;;30.00;99.90;;;;;;4865406;29;20413;-90
2023/08/24 10:00:55;;;;;;;7.70;3.00;;;29.60;99.90;;;;;;4863577;29;20441;-91
2023/08/24 10:03:24;;;;;;;3.43;2.80;;;29.50;99.90;;;;;;4862923;29;20511;-91
2023/08/24 10:05:54;;;;;;;6.10;3.20;;;29.50;99.90;;;;;;4865200;29;20442;-92
2023/08/24 10:08:27;;;;;;;3.10;2.80;;;29.40;99.90;;;;;;4864521;29;20528;-94
2023/08/24 10:10:55;;;;;;;5.10;2.70;;;29.30;99.90;;;;;;4863334;29;20397;-91
2023/08/24 10:13:31;;;;;;;4.93;2.90;;;29.20;99.90;;;;;;4862641;29;20451;-95
2023/08/24 10:15:59;;;;;;;5.17;2.77;;;29.50;99.90;;;;;;4864060;29;20800;-94
2023/08/24 10:18:26;;;;;;;3.57;2.83;;;29.40;99.90;;;;;;4862547;29;20456;-94
2023/08/24 10:20:52;;;;;;;4.60;2.90;;;29.40;99.90;;;;;;4862911;29;20816;-95
2023/08/24 10:23:19;;;;;;;5.20;2.73;;;29.50;99.90;;;;;;4863059;29;20821;-93
2023/08/24 10:25:46;;;;;;;2.90;2.60;;;29.50;99.90;;;;;;4862903;29;20413;-94
2023/08/24 10:28:13;;;;;;;6.53;3.10;;;29.70;99.90;;;;;;4864114;29;20432;-92
2023/08/24 10:30:39;;;;;;;3.57;2.80;;;29.80;99.90;;;;;;4864400;29;20424;-95
2023/08/24 10:33:06;;;;;;;3.47;2.60;;;30.00;99.90;;;;;;4864221;29;20509;-94
2023/08/24 10:35:32;;;;;;;2.93;2.60;;;30.10;99.90;;;;;;4864515;29;20437;-94
2023/08/24 10:37:59;;;;;;;4.30;2.30;;;30.30;99.90;;;;;;4864294;29;20875;-92
2023/08/24 10:40:33;;;;;;;4.60;2.37;;;30.40;99.90;;;;;;4862467;29;20788;-91
2023/08/24 10:43:01;;;;;;;5.30;2.87;;;30.30;99.90;;;;;;4861556;29;20468;-93
2023/08/24 10:45:57;;;;;;;5.87;2.67;;;30.40;99.90;;;;;;4860455;29;20493;-92
2023/08/24 10:48:44;;;;;;;3.30;2.43;;;30.30;99.90;;;;;;4861538;29;20519;-91
2023/08/24 10:51:21;;;;;;;6.80;2.63;;;30.20;99.90;;;;;;4848484;29;20440;-93
2023/08/24 10:53:50;;;;;;;3.70;2.80;;;30.30;99.90;;;;;;4868304;29;20764;-93
2023/08/24 10:56:17;;;;;;;4.50;2.63;;;30.30;99.90;;;;;;4860775;29;20429;-93
2023/08/24 10:58:44;;;;;;;2.93;2.63;;;30.40;99.90;;;;;;4865603;29;20413;-94
2023/08/24 11:01:21;;;;;;;4.63;2.80;;;30.50;99.90;;;;;;4875569;29;20424;-94
2023/08/24 11:03:56;;;;;;;3.10;2.37;;;30.60;99.90;;;;;;4868260;29;20885;-92
2023/08/24 11:06:24;;;;;;;6.20;2.50;;;30.60;99.90;;;;;;4865165;29;20490;-95
2023/08/24 11:09:06;;;;;;;3.57;2.70;;;30.70;99.90;;;;;;4864855;29;20533;-94
2023/08/24 11:11:32;;;;;;;7.60;2.60;;;30.80;99.90;;;;;;4864879;29;20747;-90
2023/08/24 11:14:19;;;;;;;5.70;2.83;;;30.60;99.90;;;;;;4865099;29;20420;-94
2023/08/24 11:16:46;;;;;;;2.63;2.23;;;30.50;99.90;;;;;;4863829;29;20656;-93
2023/08/24 11:19:13;;;;;;;3.40;2.17;;;30.50;99.90;;;;;;4863524;29;20417;-94
2023/08/24 11:21:40;;;;;;;5.90;2.60;;;30.40;99.90;;;;;;4864669;29;20520;-92
2023/08/24 11:24:06;;;;;;;5.43;3.17;;;30.30;99.90;;;;;;4864825;29;20532;-93
2023/08/24 11:26:31;;;;;;;6.60;3.20;;;30.10;99.90;;;;;;4865574;29;20814;-94
2023/08/24 11:28:57;;;;;;;4.70;2.73;;;30.20;99.90;;;;;;4865640;29;20188;-95
2023/08/24 11:31:27;;;;;;;6.27;3.10;;;30.10;99.90;;;;;;4870855;29;20270;-93
2023/08/24 11:33:56;;;;;;;3.27;2.53;;;29.70;99.90;;;;;;4876264;29;20413;-94
2023/08/24 11:36:23;;;;;;;4.70;3.37;;;29.50;99.90;;;;;;4870100;29;20557;-94
2023/08/24 11:38:53;;;;;;;7.93;2.77;;;29.40;99.90;;;;;;4849174;29;20503;-94
2023/08/24 11:41:21;;;;;;;3.43;2.60;;;29.20;99.90;;;;;;4864630;29;20492;-94
2023/08/24 11:43:50;;;;;;;3.40;2.70;;;29.00;99.90;;;;;;4864273;29;20509;-94
2023/08/24 11:46:19;;;;;;;2.93;2.60;;;29.00;99.90;;;;;;4864887;29;20453;-94
2023/08/24 11:48:45;;;;;;;3.20;2.47;;;29.00;99.90;;;;;;4864205;29;20429;-95
2023/08/24 11:51:12;;;;;;;4.40;3.10;;;29.10;99.90;;;;;;4864743;29;20428;-94
2023/08/24 11:53:45;;;;;;;7.63;3.07;;;28.90;99.90;;;;;;4864159;29;20425;-94
2023/08/24 11:56:12;;;;;;;2.33;2.13;;;28.80;99.90;;;;;;4865163;29;20523;-95
2023/08/24 11:58:42;;;;;;;4.93;2.47;;;28.60;99.90;;;;;;4864460;29;20424;-95
2023/08/24 12:01:11;;;;;;;3.60;2.80;;;28.40;99.90;;;;;;4864114;29;20889;-95
2023/08/24 12:03:38;;;;;;;5.17;3.17;;;28.20;99.90;;;;;;4862679;29;20506;-94
2023/08/24 12:06:14;;;;;;;4.50;2.33;;;28.20;99.90;;;;;;4866315;29;20806;-94
2023/08/24 12:08:45;;;;;;;6.77;2.63;;;27.80;99.90;;;;;;4862963;29;20460;-92
2023/08/24 12:11:15;;;;;;;8.73;3.90;;;27.30;99.90;;;;;;4864002;29;20405;-96
2023/08/24 12:13:52;;;;;;;6.90;3.40;;;26.80;99.90;;;;;;4863883;29;20453;-89
2023/08/24 12:16:18;;;;;;;11.23;4.40;;;26.10;99.90;;;;;;4862669;29;20405;-88
2023/08/24 12:18:55;;;;;;;8.83;4.27;;;25.70;99.90;;;;;;4863017;29;20429;-86
2023/08/24 12:21:22;;;;;;;11.90;4.33;;;25.20;99.90;;;;;;4863458;29;20507;-85
2023/08/24 12:24:05;;;;;;;13.93;4.50;;;24.90;99.90;;;;;;4862929;29;20564;-88
2023/08/24 12:26:32;;;;;;;9.67;4.33;;;24.20;99.90;;;;;;4863630;29;20412;-88
2023/08/24 12:29:05;;;;;;;9.50;4.50;;;23.90;99.90;;;;;;4863401;29;20449;-87
2023/08/24 12:31:32;;;;;;;10.67;5.10;;;23.60;99.90;;;;;;4863601;29;20409;-86
2023/08/24 12:34:03;;;;;;;11.50;4.83;;;23.40;99.90;;;;;;4862011;29;20552;-87
2023/08/24 12:36:29;;;;;;;7.60;5.63;;;23.30;99.90;;;;;;4863422;29;20858;-86
2023/08/24 12:38:55;;;;;;;14.60;5.00;;;23.20;99.90;;;;;;4862290;29;20461;-87
2023/08/24 12:41:21;;;;;;;8.83;4.97;;;23.20;99.90;;;;;;4863265;29;20448;-87
2023/08/24 12:43:47;;;;;;;12.43;5.83;;;23.20;99.90;;;;;;4862757;29;20673;-87
2023/08/24 12:46:13;;;;;;;8.47;5.23;;;23.30;99.90;;;;;;4863457;29;20512;-87